Shannon Dann — WCD6367 — position and weather

sailwx.info

Track history (hours):
 
Tides and Currents Weather Stations Pressure Air Temp Water Temp Dewpoint Dewpoint Depression Visibility Wind Speed Wind Dir Waves Ship Positions

Shannon Dann

Owner: Dann Ocean Towing, TAMPA, FL. More information available from US FCC via Universal Licensing System and Coast Guard Vessel Documentation Center.

Last reported at 2018-Oct-18 08:28 UTC. Time now 2018-Oct-18 08:59 UTC.
Position N 17°47' W 063°25'.

Length 30 m; draft 4 m.

Type: Tow > 200 m length. MMSI: 338533000.

Date/timePositionNaut miles runAvg speedWind from/ knotsBaromVisibWave heightAir tempDewpointWater temp
2018-Oct-18 08:28N 17°47' W 063°25'2 4.9
2018-Oct-18 08:01N 17°46' W 063°23'0 5.0
2018-Oct-18 07:57N 17°46' W 063°23'3 5.1
2018-Oct-18 07:26N 17°45' W 063°20'2 5.2
2018-Oct-18 07:03N 17°44' W 063°18'0 5.8
2018-Oct-18 06:59N 17°44' W 063°18'2 5.0
2018-Oct-18 06:30N 17°44' W 063°15'3 4.9
2018-Oct-18 06:00N 17°43' W 063°13'3 4.9
2018-Oct-18 05:28N 17°41' W 063°11'2 4.7
2018-Oct-18 05:03N 17°39' W 063°10'0 4.9
2018-Oct-18 04:59N 17°39' W 063°09'2 4.7
2018-Oct-18 04:28N 17°37' W 063°08'2 4.9
2018-Oct-18 03:57N 17°35' W 063°07'6 4.8
2018-Oct-18 02:40N 17°29' W 063°04'11 4.9
2018-Oct-18 00:20N 17°21' W 062°56'22 5.3
2018-Oct-17 20:13N 17°04' W 062°41'1 5.3
2018-Oct-17 19:59N 17°03' W 062°41'  
2018-Oct-14 21:11N 14°21' W 061°09'4 6.1
2018-Oct-14 20:30N 14°25' W 061°11'4 6.8
2018-Oct-14 19:58N 14°28' W 061°12'4 6.5
2018-Oct-14 19:26N 14°31' W 061°14'173 6.2
2018-Oct-13 15:47N 17°02' W 062°40'22 6.0
2018-Oct-13 12:05N 17°20' W 062°55'0 6.3
2018-Oct-13 12:03N 17°20' W 062°55'0 6.3
2018-Oct-13 11:59N 17°20' W 062°56'21 6.2
2018-Oct-13 08:34N 17°37' W 063°08'1 6.4
2018-Oct-13 08:20N 17°39' W 063°09'2 6.5
2018-Oct-13 08:01N 17°40' W 063°10'0 6.7
2018-Oct-13 08:00N 17°40' W 063°11'4 6.7
2018-Oct-13 07:27N 17°43' W 063°13'3 6.3
2018-Oct-13 07:03N 17°44' W 063°16'0 6.5
2018-Oct-13 07:00N 17°44' W 063°16'3 6.5
2018-Oct-13 06:29N 17°45' W 063°20'3 7.3
2018-Oct-13 06:03N 17°46' W 063°23'0 4.2
2018-Oct-13 05:59N 17°46' W 063°23'5 6.6
2018-Oct-13 05:16N 17°47' W 063°28'86 5.9
2018-Oct-12 14:46N 18°16' W 064°53'3 0.1
2018-Oct-11 02:34N 18°16' W 064°56'3 5.7
2018-Oct-11 02:02N 18°13' W 064°55'  
Track history (hours):
 
Tides and Currents Weather Stations Pressure Air Temp Water Temp Dewpoint Dewpoint Depression Visibility Wind Speed Wind Dir Waves Ship Positions

Shannon Dann

Owner: Dann Ocean Towing, TAMPA, FL. More information available from US FCC via Universal Licensing System and Coast Guard Vessel Documentation Center.

Last reported at 2018-Oct-18 08:28 UTC. Time now 2018-Oct-18 08:59 UTC.
Position N 17°47' W 063°25'.

Length 30 m; draft 4 m.

Type: Tow > 200 m length. MMSI: 338533000.

Date/timePositionNaut miles runAvg speedWind from/ knotsBaromVisibWave heightAir tempDewpointWater temp
2018-Oct-18 08:28N 17°47' W 063°25'2 4.9
2018-Oct-18 08:01N 17°46' W 063°23'0 5.0
2018-Oct-18 07:57N 17°46' W 063°23'3 5.1
2018-Oct-18 07:26N 17°45' W 063°20'2 5.2
2018-Oct-18 07:03N 17°44' W 063°18'0 5.8
2018-Oct-18 06:59N 17°44' W 063°18'2 5.0
2018-Oct-18 06:30N 17°44' W 063°15'3 4.9
2018-Oct-18 06:00N 17°43' W 063°13'3 4.9
2018-Oct-18 05:28N 17°41' W 063°11'2 4.7
2018-Oct-18 05:03N 17°39' W 063°10'0 4.9
2018-Oct-18 04:59N 17°39' W 063°09'2 4.7
2018-Oct-18 04:28N 17°37' W 063°08'2 4.9
2018-Oct-18 03:57N 17°35' W 063°07'6 4.8
2018-Oct-18 02:40N 17°29' W 063°04'11 4.9
2018-Oct-18 00:20N 17°21' W 062°56'22 5.3
2018-Oct-17 20:13N 17°04' W 062°41'1 5.3
2018-Oct-17 19:59N 17°03' W 062°41'  
2018-Oct-14 21:11N 14°21' W 061°09'4 6.1
2018-Oct-14 20:30N 14°25' W 061°11'4 6.8
2018-Oct-14 19:58N 14°28' W 061°12'4 6.5
2018-Oct-14 19:26N 14°31' W 061°14'173 6.2
2018-Oct-13 15:47N 17°02' W 062°40'22 6.0
2018-Oct-13 12:05N 17°20' W 062°55'0 6.3
2018-Oct-13 12:03N 17°20' W 062°55'0 6.3
2018-Oct-13 11:59N 17°20' W 062°56'21 6.2
2018-Oct-13 08:34N 17°37' W 063°08'1 6.4
2018-Oct-13 08:20N 17°39' W 063°09'2 6.5
2018-Oct-13 08:01N 17°40' W 063°10'0 6.7
2018-Oct-13 08:00N 17°40' W 063°11'4 6.7
2018-Oct-13 07:27N 17°43' W 063°13'3 6.3
2018-Oct-13 07:03N 17°44' W 063°16'0 6.5
2018-Oct-13 07:00N 17°44' W 063°16'3 6.5
2018-Oct-13 06:29N 17°45' W 063°20'3 7.3
2018-Oct-13 06:03N 17°46' W 063°23'0 4.2
2018-Oct-13 05:59N 17°46' W 063°23'5 6.6
2018-Oct-13 05:16N 17°47' W 063°28'86 5.9
2018-Oct-12 14:46N 18°16' W 064°53'3 0.1
2018-Oct-11 02:34N 18°16' W 064°56'3 5.7
2018-Oct-11 02:02N 18°13' W 064°55'  

Dump ship's entire track history